sensor_id;sensor_type;location;lat;lon;timestamp;P1;durP1;ratioP1;P2;durP2;ratioP2
21733;SDS011;11029;47.820;10.534;2023-08-12T00:00:58;4.90;;;4.38;;
21733;SDS011;11029;47.820;10.534;2023-08-12T00:03:25;5.63;;;4.30;;
21733;SDS011;11029;47.820;10.534;2023-08-12T00:05:53;4.60;;;4.00;;
21733;SDS011;11029;47.820;10.534;2023-08-12T00:08:20;4.93;;;3.72;;
21733;SDS011;11029;47.820;10.534;2023-08-12T00:10:47;4.80;;;3.70;;
21733;SDS011;11029;47.820;10.534;2023-08-12T00:13:14;4.60;;;4.20;;
21733;SDS011;11029;47.820;10.534;2023-08-12T00:15:44;4.50;;;4.07;;
21733;SDS011;11029;47.820;10.534;2023-08-12T00:18:11;5.00;;;4.22;;
21733;SDS011;11029;47.820;10.534;2023-08-12T00:20:38;4.40;;;4.10;;
21733;SDS011;11029;47.820;10.534;2023-08-12T00:23:04;4.80;;;4.30;;
21733;SDS011;11029;47.820;10.534;2023-08-12T00:25:31;6.30;;;4.43;;
21733;SDS011;11029;47.820;10.534;2023-08-12T00:27:58;5.50;;;4.18;;
21733;SDS011;11029;47.820;10.534;2023-08-12T00:30:25;4.35;;;3.90;;
21733;SDS011;11029;47.820;10.534;2023-08-12T00:32:52;4.90;;;4.03;;
21733;SDS011;11029;47.820;10.534;2023-08-12T00:35:19;4.78;;;4.32;;
21733;SDS011;11029;47.820;10.534;2023-08-12T00:37:46;5.45;;;4.53;;
21733;SDS011;11029;47.820;10.534;2023-08-12T00:40:13;4.85;;;4.30;;
21733;SDS011;11029;47.820;10.534;2023-08-12T00:42:40;4.93;;;4.43;;
21733;SDS011;11029;47.820;10.534;2023-08-12T00:45:10;5.72;;;4.80;;
21733;SDS011;11029;47.820;10.534;2023-08-12T00:47:39;4.90;;;4.40;;
21733;SDS011;11029;47.820;10.534;2023-08-12T00:50:08;6.82;;;4.60;;
21733;SDS011;11029;47.820;10.534;2023-08-12T00:52:38;5.77;;;4.20;;
21733;SDS011;11029;47.820;10.534;2023-08-12T00:55:06;5.07;;;4.57;;
21733;SDS011;11029;47.820;10.534;2023-08-12T00:57:33;4.60;;;4.13;;
21733;SDS011;11029;47.820;10.534;2023-08-12T01:00:00;5.00;;;4.50;;
21733;SDS011;11029;47.820;10.534;2023-08-12T01:02:30;4.60;;;4.22;;
21733;SDS011;11029;47.820;10.534;2023-08-12T01:04:58;4.65;;;4.20;;
21733;SDS011;11029;47.820;10.534;2023-08-12T01:07:25;5.38;;;4.50;;
21733;SDS011;11029;47.820;10.534;2023-08-12T01:09:52;4.93;;;4.20;;
21733;SDS011;11029;47.820;10.534;2023-08-12T01:15:07;4.32;;;3.95;;
21733;SDS011;11029;47.820;10.534;2023-08-12T01:17:41;4.00;;;3.70;;
21733;SDS011;11029;47.820;10.534;2023-08-12T01:20:09;5.22;;;4.13;;
21733;SDS011;11029;47.820;10.534;2023-08-12T01:22:41;4.10;;;3.80;;
21733;SDS011;11029;47.820;10.534;2023-08-12T01:25:10;4.43;;;3.70;;
21733;SDS011;11029;47.820;10.534;2023-08-12T01:27:37;4.70;;;3.92;;
21733;SDS011;11029;47.820;10.534;2023-08-12T01:30:04;4.53;;;3.90;;
21733;SDS011;11029;47.820;10.534;2023-08-12T01:32:48;4.38;;;3.97;;
21733;SDS011;11029;47.820;10.534;2023-08-12T01:35:23;4.30;;;3.90;;
21733;SDS011;11029;47.820;10.534;2023-08-12T01:38:02;4.37;;;3.97;;
21733;SDS011;11029;47.820;10.534;2023-08-12T01:40:31;3.85;;;3.55;;
21733;SDS011;11029;47.820;10.534;2023-08-12T01:42:59;4.43;;;4.03;;
21733;SDS011;11029;47.820;10.534;2023-08-12T01:45:30;6.13;;;3.97;;
21733;SDS011;11029;47.820;10.534;2023-08-12T01:47:58;4.32;;;4.03;;
21733;SDS011;11029;47.820;10.534;2023-08-12T01:50:25;5.75;;;4.10;;
21733;SDS011;11029;47.820;10.534;2023-08-12T01:52:52;4.18;;;3.78;;
21733;SDS011;11029;47.820;10.534;2023-08-12T01:55:19;5.77;;;4.27;;
21733;SDS011;11029;47.820;10.534;2023-08-12T01:57:46;5.85;;;4.47;;
21733;SDS011;11029;47.820;10.534;2023-08-12T02:00:12;4.80;;;4.40;;
21733;SDS011;11029;47.820;10.534;2023-08-12T02:02:42;5.10;;;4.38;;
21733;SDS011;11029;47.820;10.534;2023-08-12T02:05:13;5.00;;;4.40;;
21733;SDS011;11029;47.820;10.534;2023-08-12T02:07:40;5.00;;;4.50;;
21733;SDS011;11029;47.820;10.534;2023-08-12T02:10:08;4.85;;;4.45;;
21733;SDS011;11029;47.820;10.534;2023-08-12T02:12:35;5.00;;;4.55;;
21733;SDS011;11029;47.820;10.534;2023-08-12T02:15:02;4.88;;;4.47;;
21733;SDS011;11029;47.820;10.534;2023-08-12T02:17:29;5.50;;;4.43;;
21733;SDS011;11029;47.820;10.534;2023-08-12T02:19:56;4.72;;;4.30;;
21733;SDS011;11029;47.820;10.534;2023-08-12T02:22:23;4.15;;;3.75;;
21733;SDS011;11029;47.820;10.534;2023-08-12T02:24:50;4.47;;;3.60;;
21733;SDS011;11029;47.820;10.534;2023-08-12T02:27:16;4.25;;;3.90;;
21733;SDS011;11029;47.820;10.534;2023-08-12T02:29:43;4.90;;;3.80;;
21733;SDS011;11029;47.820;10.534;2023-08-12T02:32:11;4.07;;;3.75;;
21733;SDS011;11029;47.820;10.534;2023-08-12T02:34:37;4.13;;;3.80;;
21733;SDS011;11029;47.820;10.534;2023-08-12T02:37:04;5.40;;;4.25;;
21733;SDS011;11029;47.820;10.534;2023-08-12T02:39:31;4.30;;;3.90;;
21733;SDS011;11029;47.820;10.534;2023-08-12T02:41:58;5.65;;;3.85;;
21733;SDS011;11029;47.820;10.534;2023-08-12T02:44:26;4.50;;;4.10;;
21733;SDS011;11029;47.820;10.534;2023-08-12T02:46:53;4.30;;;3.90;;
21733;SDS011;11029;47.820;10.534;2023-08-12T02:49:19;4.03;;;3.73;;
21733;SDS011;11029;47.820;10.534;2023-08-12T02:51:46;4.05;;;3.65;;
21733;SDS011;11029;47.820;10.534;2023-08-12T02:54:13;5.43;;;4.50;;
21733;SDS011;11029;47.820;10.534;2023-08-12T02:56:40;4.30;;;3.90;;
21733;SDS011;11029;47.820;10.534;2023-08-12T02:59:07;4.93;;;4.30;;
21733;SDS011;11029;47.820;10.534;2023-08-12T03:01:33;4.38;;;4.03;;
21733;SDS011;11029;47.820;10.534;2023-08-12T03:04:00;3.60;;;3.35;;
21733;SDS011;11029;47.820;10.534;2023-08-12T03:06:27;3.47;;;3.25;;
21733;SDS011;11029;47.820;10.534;2023-08-12T03:08:54;3.70;;;3.40;;
21733;SDS011;11029;47.820;10.534;2023-08-12T03:11:21;3.60;;;3.30;;
21733;SDS011;11029;47.820;10.534;2023-08-12T03:13:48;3.97;;;3.15;;
21733;SDS011;11029;47.820;10.534;2023-08-12T03:16:16;4.40;;;4.00;;
21733;SDS011;11029;47.820;10.534;2023-08-12T03:18:45;4.03;;;3.63;;
21733;SDS011;11029;47.820;10.534;2023-08-12T03:21:12;4.47;;;3.72;;
21733;SDS011;11029;47.820;10.534;2023-08-12T03:23:39;4.25;;;3.85;;
21733;SDS011;11029;47.820;10.534;2023-08-12T03:26:08;4.05;;;3.70;;
21733;SDS011;11029;47.820;10.534;2023-08-12T03:28:35;3.95;;;3.65;;
21733;SDS011;11029;47.820;10.534;2023-08-12T03:31:02;5.53;;;3.72;;
21733;SDS011;11029;47.820;10.534;2023-08-12T03:33:31;3.70;;;3.50;;
21733;SDS011;11029;47.820;10.534;2023-08-12T03:36:00;4.05;;;3.65;;
21733;SDS011;11029;47.820;10.534;2023-08-12T03:38:27;3.80;;;3.50;;
21733;SDS011;11029;47.820;10.534;2023-08-12T03:40:54;3.92;;;3.63;;
21733;SDS011;11029;47.820;10.534;2023-08-12T03:43:21;4.22;;;3.83;;
21733;SDS011;11029;47.820;10.534;2023-08-12T03:45:48;4.20;;;3.78;;
21733;SDS011;11029;47.820;10.534;2023-08-12T03:48:18;3.70;;;3.40;;
21733;SDS011;11029;47.820;10.534;2023-08-12T03:50:45;3.60;;;3.30;;
21733;SDS011;11029;47.820;10.534;2023-08-12T03:53:13;4.07;;;3.35;;
21733;SDS011;11029;47.820;10.534;2023-08-12T03:55:41;3.80;;;3.50;;
21733;SDS011;11029;47.820;10.534;2023-08-12T03:58:09;4.00;;;3.65;;
21733;SDS011;11029;47.820;10.534;2023-08-12T04:00:40;3.70;;;3.40;;
21733;SDS011;11029;47.820;10.534;2023-08-12T04:03:10;2.88;;;2.67;;
21733;SDS011;11029;47.820;10.534;2023-08-12T04:05:37;5.25;;;3.40;;
21733;SDS011;11029;47.820;10.534;2023-08-12T04:08:04;3.67;;;3.37;;
21733;SDS011;11029;47.820;10.534;2023-08-12T04:10:31;4.57;;;3.37;;
21733;SDS011;11029;47.820;10.534;2023-08-12T04:12:58;4.10;;;3.22;;
21733;SDS011;11029;47.820;10.534;2023-08-12T04:15:24;3.80;;;3.40;;
21733;SDS011;11029;47.820;10.534;2023-08-12T04:17:51;4.00;;;3.42;;
21733;SDS011;11029;47.820;10.534;2023-08-12T04:20:18;4.80;;;4.07;;
21733;SDS011;11029;47.820;10.534;2023-08-12T04:22:45;5.82;;;5.03;;
21733;SDS011;11029;47.820;10.534;2023-08-12T04:25:15;5.70;;;5.10;;
21733;SDS011;11029;47.820;10.534;2023-08-12T04:27:42;6.43;;;4.53;;
21733;SDS011;11029;47.820;10.534;2023-08-12T04:30:09;4.47;;;4.05;;
21733;SDS011;11029;47.820;10.534;2023-08-12T04:32:36;4.30;;;3.80;;
21733;SDS011;11029;47.820;10.534;2023-08-12T04:35:04;4.30;;;3.60;;
21733;SDS011;11029;47.820;10.534;2023-08-12T04:37:31;4.77;;;3.60;;
21733;SDS011;11029;47.820;10.534;2023-08-12T04:39:58;4.18;;;3.33;;
21733;SDS011;11029;47.820;10.534;2023-08-12T04:42:26;3.40;;;3.10;;
21733;SDS011;11029;47.820;10.534;2023-08-12T04:44:52;3.60;;;3.30;;
21733;SDS011;11029;47.820;10.534;2023-08-12T04:47:20;3.20;;;2.90;;
21733;SDS011;11029;47.820;10.534;2023-08-12T04:49:46;3.10;;;2.90;;
21733;SDS011;11029;47.820;10.534;2023-08-12T04:52:13;4.40;;;3.20;;
21733;SDS011;11029;47.820;10.534;2023-08-12T04:54:40;4.53;;;3.33;;
21733;SDS011;11029;47.820;10.534;2023-08-12T04:57:07;3.47;;;3.17;;
21733;SDS011;11029;47.820;10.534;2023-08-12T04:59:34;3.63;;;3.33;;
21733;SDS011;11029;47.820;10.534;2023-08-12T05:02:01;3.80;;;3.25;;
21733;SDS011;11029;47.820;10.534;2023-08-12T05:04:32;3.37;;;3.10;;
21733;SDS011;11029;47.820;10.534;2023-08-12T05:06:59;3.67;;;3.20;;
21733;SDS011;11029;47.820;10.534;2023-08-12T05:09:26;3.65;;;3.17;;
21733;SDS011;11029;47.820;10.534;2023-08-12T05:11:53;3.75;;;3.35;;
21733;SDS011;11029;47.820;10.534;2023-08-12T05:14:19;3.75;;;3.35;;
21733;SDS011;11029;47.820;10.534;2023-08-12T05:16:46;3.40;;;3.10;;
21733;SDS011;11029;47.820;10.534;2023-08-12T05:19:13;3.42;;;3.13;;
21733;SDS011;11029;47.820;10.534;2023-08-12T05:21:40;4.38;;;3.85;;
21733;SDS011;11029;47.820;10.534;2023-08-12T05:24:07;4.20;;;3.80;;
21733;SDS011;11029;47.820;10.534;2023-08-12T05:26:34;4.50;;;4.18;;
21733;SDS011;11029;47.820;10.534;2023-08-12T05:29:01;3.63;;;3.33;;
21733;SDS011;11029;47.820;10.534;2023-08-12T05:31:28;3.80;;;3.50;;
21733;SDS011;11029;47.820;10.534;2023-08-12T05:33:55;5.22;;;3.97;;
21733;SDS011;11029;47.820;10.534;2023-08-12T05:36:22;4.30;;;3.90;;
21733;SDS011;11029;47.820;10.534;2023-08-12T05:38:49;4.20;;;3.40;;
21733;SDS011;11029;47.820;10.534;2023-08-12T05:41:16;6.13;;;3.70;;
21733;SDS011;11029;47.820;10.534;2023-08-12T05:43:42;3.70;;;3.28;;
21733;SDS011;11029;47.820;10.534;2023-08-12T05:46:10;3.70;;;3.33;;
21733;SDS011;11029;47.820;10.534;2023-08-12T05:48:37;5.68;;;3.97;;
21733;SDS011;11029;47.820;10.534;2023-08-12T05:51:04;3.67;;;3.30;;
21733;SDS011;11029;47.820;10.534;2023-08-12T05:53:31;6.10;;;3.45;;
21733;SDS011;11029;47.820;10.534;2023-08-12T05:55:59;4.18;;;3.75;;
21733;SDS011;11029;47.820;10.534;2023-08-12T05:58:26;4.13;;;3.63;;
21733;SDS011;11029;47.820;10.534;2023-08-12T06:00:52;4.13;;;3.72;;
21733;SDS011;11029;47.820;10.534;2023-08-12T06:03:19;5.05;;;4.30;;
21733;SDS011;11029;47.820;10.534;2023-08-12T06:05:46;4.18;;;3.78;;
21733;SDS011;11029;47.820;10.534;2023-08-12T06:08:13;5.20;;;4.10;;
21733;SDS011;11029;47.820;10.534;2023-08-12T06:10:40;4.00;;;3.70;;
21733;SDS011;11029;47.820;10.534;2023-08-12T06:13:07;4.32;;;3.47;;
21733;SDS011;11029;47.820;10.534;2023-08-12T06:15:34;3.50;;;3.20;;
21733;SDS011;11029;47.820;10.534;2023-08-12T06:18:02;3.65;;;3.35;;
21733;SDS011;11029;47.820;10.534;2023-08-12T06:20:29;3.80;;;3.50;;
21733;SDS011;11029;47.820;10.534;2023-08-12T06:22:56;3.60;;;3.30;;
21733;SDS011;11029;47.820;10.534;2023-08-12T06:25:22;3.30;;;3.00;;
21733;SDS011;11029;47.820;10.534;2023-08-12T06:27:49;3.50;;;3.13;;
21733;SDS011;11029;47.820;10.534;2023-08-12T06:30:16;3.30;;;3.10;;
21733;SDS011;11029;47.820;10.534;2023-08-12T06:32:43;3.13;;;2.92;;
21733;SDS011;11029;47.820;10.534;2023-08-12T06:35:10;3.90;;;3.33;;
21733;SDS011;11029;47.820;10.534;2023-08-12T06:37:36;3.72;;;3.25;;
21733;SDS011;11029;47.820;10.534;2023-08-12T06:40:03;3.80;;;3.50;;
21733;SDS011;11029;47.820;10.534;2023-08-12T06:42:31;2.97;;;2.78;;
21733;SDS011;11029;47.820;10.534;2023-08-12T06:44:58;3.38;;;3.08;;
21733;SDS011;11029;47.820;10.534;2023-08-12T06:47:26;4.00;;;3.60;;
21733;SDS011;11029;47.820;10.534;2023-08-12T06:49:54;3.25;;;3.00;;
21733;SDS011;11029;47.820;10.534;2023-08-12T06:52:21;4.00;;;3.70;;
21733;SDS011;11029;47.820;10.534;2023-08-12T06:54:48;3.65;;;3.35;;
21733;SDS011;11029;47.820;10.534;2023-08-12T06:57:15;3.25;;;3.05;;
21733;SDS011;11029;47.820;10.534;2023-08-12T07:41:16;2.97;;;2.30;;
21733;SDS011;11029;47.820;10.534;2023-08-12T07:43:43;3.08;;;2.78;;
21733;SDS011;11029;47.820;10.534;2023-08-12T07:46:10;3.38;;;3.08;;
21733;SDS011;11029;47.820;10.534;2023-08-12T07:48:36;3.70;;;2.80;;
21733;SDS011;11029;47.820;10.534;2023-08-12T07:51:04;3.72;;;3.08;;
21733;SDS011;11029;47.820;10.534;2023-08-12T07:53:31;3.97;;;3.00;;
21733;SDS011;11029;47.820;10.534;2023-08-12T07:55:58;3.25;;;2.65;;
21733;SDS011;11029;47.820;10.534;2023-08-12T07:58:25;2.85;;;2.65;;
21733;SDS011;11029;47.820;10.534;2023-08-12T08:00:53;4.70;;;3.08;;
21733;SDS011;11029;47.820;10.534;2023-08-12T08:03:20;3.88;;;2.92;;
21733;SDS011;11029;47.820;10.534;2023-08-12T08:05:47;5.53;;;3.00;;
21733;SDS011;11029;47.820;10.534;2023-08-12T08:08:14;4.03;;;3.33;;
21733;SDS011;11029;47.820;10.534;2023-08-12T08:10:41;3.55;;;3.05;;
21733;SDS011;11029;47.820;10.534;2023-08-12T08:13:08;6.07;;;3.70;;
21733;SDS011;11029;47.820;10.534;2023-08-12T09:30:15;4.85;;;2.40;;
21733;SDS011;11029;47.820;10.534;2023-08-12T09:32:42;3.70;;;2.20;;
21733;SDS011;11029;47.820;10.534;2023-08-12T09:35:25;3.80;;;2.50;;
21733;SDS011;11029;47.820;10.534;2023-08-12T09:38:05;2.50;;;2.30;;
21733;SDS011;11029;47.820;10.534;2023-08-12T09:40:35;2.58;;;2.28;;
21733;SDS011;11029;47.820;10.534;2023-08-12T09:43:03;3.17;;;2.22;;
21733;SDS011;11029;47.820;10.534;2023-08-12T09:45:30;2.67;;;2.40;;
21733;SDS011;11029;47.820;10.534;2023-08-12T09:47:58;2.60;;;2.30;;
21733;SDS011;11029;47.820;10.534;2023-08-12T09:50:26;2.85;;;2.38;;
21733;SDS011;11029;47.820;10.534;2023-08-12T09:52:54;2.40;;;2.20;;
21733;SDS011;11029;47.820;10.534;2023-08-12T09:55:23;2.40;;;2.20;;
21733;SDS011;11029;47.820;10.534;2023-08-12T09:57:51;2.60;;;2.40;;
21733;SDS011;11029;47.820;10.534;2023-08-12T10:00:19;3.22;;;2.55;;
21733;SDS011;11029;47.820;10.534;2023-08-12T10:02:50;4.13;;;2.60;;
21733;SDS011;11029;47.820;10.534;2023-08-12T10:07:48;4.60;;;2.77;;
21733;SDS011;11029;47.820;10.534;2023-08-12T10:10:15;3.08;;;2.78;;
21733;SDS011;11029;47.820;10.534;2023-08-12T10:12:42;3.03;;;2.30;;
21733;SDS011;11029;47.820;10.534;2023-08-12T10:15:10;4.30;;;2.50;;
21733;SDS011;11029;47.820;10.534;2023-08-12T10:17:38;3.17;;;2.40;;
21733;SDS011;11029;47.820;10.534;2023-08-12T10:20:12;2.78;;;2.50;;
21733;SDS011;11029;47.820;10.534;2023-08-12T10:22:39;2.55;;;2.33;;
21733;SDS011;11029;47.820;10.534;2023-08-12T10:25:08;2.50;;;2.30;;
21733;SDS011;11029;47.820;10.534;2023-08-12T10:27:36;3.50;;;2.60;;
21733;SDS011;11029;47.820;10.534;2023-08-12T10:30:04;3.53;;;2.60;;
21733;SDS011;11029;47.820;10.534;2023-08-12T10:32:32;4.18;;;2.53;;
21733;SDS011;11029;47.820;10.534;2023-08-12T10:34:59;3.40;;;2.60;;
21733;SDS011;11029;47.820;10.534;2023-08-12T10:37:26;5.03;;;2.53;;
21733;SDS011;11029;47.820;10.534;2023-08-12T10:39:53;2.80;;;2.60;;
21733;SDS011;11029;47.820;10.534;2023-08-12T10:45:11;3.55;;;2.30;;
21733;SDS011;11029;47.820;10.534;2023-08-12T10:47:40;2.80;;;2.50;;
21733;SDS011;11029;47.820;10.534;2023-08-12T10:50:27;3.33;;;2.40;;
21733;SDS011;11029;47.820;10.534;2023-08-12T10:52:57;5.50;;;2.80;;
21733;SDS011;11029;47.820;10.534;2023-08-12T10:55:25;2.90;;;2.63;;
21733;SDS011;11029;47.820;10.534;2023-08-12T10:57:54;4.05;;;2.63;;
21733;SDS011;11029;47.820;10.534;2023-08-12T11:00:26;2.85;;;2.45;;
21733;SDS011;11029;47.820;10.534;2023-08-12T11:02:55;4.10;;;2.50;;
21733;SDS011;11029;47.820;10.534;2023-08-12T11:05:23;3.77;;;2.60;;
21733;SDS011;11029;47.820;10.534;2023-08-12T11:07:57;3.10;;;2.30;;
21733;SDS011;11029;47.820;10.534;2023-08-12T11:10:29;3.15;;;2.50;;
21733;SDS011;11029;47.820;10.534;2023-08-12T11:13:00;2.33;;;2.20;;
21733;SDS011;11029;47.820;10.534;2023-08-12T11:15:41;4.00;;;2.30;;
21733;SDS011;11029;47.820;10.534;2023-08-12T11:18:12;4.43;;;2.40;;
21733;SDS011;11029;47.820;10.534;2023-08-12T11:20:42;3.20;;;2.35;;
21733;SDS011;11029;47.820;10.534;2023-08-12T11:23:10;4.00;;;2.50;;
21733;SDS011;11029;47.820;10.534;2023-08-12T11:25:37;3.80;;;2.55;;
21733;SDS011;11029;47.820;10.534;2023-08-12T11:28:06;4.30;;;2.75;;
21733;SDS011;11029;47.820;10.534;2023-08-12T11:30:34;3.60;;;2.53;;
21733;SDS011;11029;47.820;10.534;2023-08-12T11:33:01;3.35;;;2.50;;
21733;SDS011;11029;47.820;10.534;2023-08-12T11:35:29;3.92;;;2.50;;
21733;SDS011;11029;47.820;10.534;2023-08-12T11:37:56;2.80;;;2.60;;
21733;SDS011;11029;47.820;10.534;2023-08-12T11:40:25;2.88;;;2.67;;
21733;SDS011;11029;47.820;10.534;2023-08-12T11:42:53;3.38;;;2.60;;
21733;SDS011;11029;47.820;10.534;2023-08-12T11:45:21;3.97;;;2.50;;
21733;SDS011;11029;47.820;10.534;2023-08-12T11:47:49;3.05;;;2.75;;
21733;SDS011;11029;47.820;10.534;2023-08-12T11:50:22;4.68;;;2.80;;
21733;SDS011;11029;47.820;10.534;2023-08-12T11:52:55;9.20;;;2.70;;
21733;SDS011;11029;47.820;10.534;2023-08-12T11:55:22;7.40;;;2.70;;
21733;SDS011;11029;47.820;10.534;2023-08-12T11:57:50;6.63;;;3.20;;
21733;SDS011;11029;47.820;10.534;2023-08-12T12:00:18;4.70;;;2.80;;
21733;SDS011;11029;47.820;10.534;2023-08-12T12:02:50;5.20;;;2.53;;
21733;SDS011;11029;47.820;10.534;2023-08-12T12:05:21;6.07;;;2.70;;
21733;SDS011;11029;47.820;10.534;2023-08-12T12:07:51;3.53;;;2.70;;
21733;SDS011;11029;47.820;10.534;2023-08-12T12:10:20;4.90;;;2.90;;
21733;SDS011;11029;47.820;10.534;2023-08-12T12:12:53;2.67;;;2.47;;
21733;SDS011;11029;47.820;10.534;2023-08-12T12:15:21;3.70;;;2.40;;
21733;SDS011;11029;47.820;10.534;2023-08-12T12:17:51;5.22;;;2.63;;
21733;SDS011;11029;47.820;10.534;2023-08-12T12:20:19;3.78;;;2.35;;
21733;SDS011;11029;47.820;10.534;2023-08-12T12:22:46;2.78;;;2.38;;
21733;SDS011;11029;47.820;10.534;2023-08-12T12:25:14;4.28;;;2.45;;
21733;SDS011;11029;47.820;10.534;2023-08-12T12:27:43;3.85;;;2.28;;
21733;SDS011;11029;47.820;10.534;2023-08-12T12:30:12;3.42;;;2.50;;
21733;SDS011;11029;47.820;10.534;2023-08-12T12:32:40;2.97;;;2.60;;
21733;SDS011;11029;47.820;10.534;2023-08-12T12:35:07;4.38;;;2.50;;
21733;SDS011;11029;47.820;10.534;2023-08-12T12:37:34;4.05;;;2.78;;
21733;SDS011;11029;47.820;10.534;2023-08-12T12:40:02;4.97;;;2.70;;
21733;SDS011;11029;47.820;10.534;2023-08-12T12:42:30;3.47;;;2.50;;
21733;SDS011;11029;47.820;10.534;2023-08-12T12:44:57;3.35;;;2.30;;
21733;SDS011;11029;47.820;10.534;2023-08-12T12:47:23;5.20;;;2.70;;
21733;SDS011;11029;47.820;10.534;2023-08-12T12:49:50;5.22;;;2.90;;
21733;SDS011;11029;47.820;10.534;2023-08-12T12:52:17;4.33;;;2.90;;
21733;SDS011;11029;47.820;10.534;2023-08-12T12:54:44;3.85;;;2.90;;
21733;SDS011;11029;47.820;10.534;2023-08-12T12:57:10;4.90;;;3.13;;
21733;SDS011;11029;47.820;10.534;2023-08-12T12:59:37;4.25;;;3.10;;
21733;SDS011;11029;47.820;10.534;2023-08-12T13:02:04;5.23;;;3.20;;
21733;SDS011;11029;47.820;10.534;2023-08-12T13:04:31;4.53;;;3.30;;
21733;SDS011;11029;47.820;10.534;2023-08-12T13:06:58;4.60;;;3.43;;
21733;SDS011;11029;47.820;10.534;2023-08-12T13:09:25;4.72;;;3.20;;
21733;SDS011;11029;47.820;10.534;2023-08-12T13:11:52;6.55;;;3.15;;
21733;SDS011;11029;47.820;10.534;2023-08-12T13:14:19;3.63;;;3.15;;
21733;SDS011;11029;47.820;10.534;2023-08-12T13:16:47;4.78;;;3.25;;
21733;SDS011;11029;47.820;10.534;2023-08-12T13:19:14;6.20;;;3.67;;
21733;SDS011;11029;47.820;10.534;2023-08-12T13:21:41;6.90;;;3.08;;
21733;SDS011;11029;47.820;10.534;2023-08-12T13:24:08;5.10;;;3.15;;
21733;SDS011;11029;47.820;10.534;2023-08-12T13:26:35;5.90;;;3.30;;
21733;SDS011;11029;47.820;10.534;2023-08-12T13:29:01;6.38;;;3.40;;
21733;SDS011;11029;47.820;10.534;2023-08-12T13:31:28;5.68;;;3.20;;
21733;SDS011;11029;47.820;10.534;2023-08-12T13:33:55;6.27;;;3.50;;
21733;SDS011;11029;47.820;10.534;2023-08-12T13:36:22;4.22;;;3.15;;
21733;SDS011;11029;47.820;10.534;2023-08-12T13:38:49;6.20;;;3.25;;
21733;SDS011;11029;47.820;10.534;2023-08-12T13:41:16;4.50;;;3.10;;
21733;SDS011;11029;47.820;10.534;2023-08-12T13:43:43;7.85;;;3.50;;
21733;SDS011;11029;47.820;10.534;2023-08-12T13:46:09;5.43;;;3.20;;
21733;SDS011;11029;47.820;10.534;2023-08-12T13:48:36;4.15;;;3.15;;
21733;SDS011;11029;47.820;10.534;2023-08-12T13:51:03;5.53;;;3.10;;
21733;SDS011;11029;47.820;10.534;2023-08-12T13:53:30;5.20;;;3.05;;
21733;SDS011;11029;47.820;10.534;2023-08-12T13:55:57;4.85;;;3.30;;
21733;SDS011;11029;47.820;10.534;2023-08-12T13:58:23;8.10;;;3.30;;
21733;SDS011;11029;47.820;10.534;2023-08-12T14:00:50;4.88;;;3.42;;
21733;SDS011;11029;47.820;10.534;2023-08-12T14:03:17;4.47;;;2.78;;
21733;SDS011;11029;47.820;10.534;2023-08-12T14:05:44;3.85;;;2.72;;
21733;SDS011;11029;47.820;10.534;2023-08-12T14:08:11;4.72;;;2.63;;
21733;SDS011;11029;47.820;10.534;2023-08-12T14:10:38;4.10;;;2.60;;
21733;SDS011;11029;47.820;10.534;2023-08-12T14:13:05;5.25;;;2.65;;
21733;SDS011;11029;47.820;10.534;2023-08-12T14:15:33;4.53;;;2.50;;
21733;SDS011;11029;47.820;10.534;2023-08-12T14:18:00;2.97;;;2.33;;
21733;SDS011;11029;47.820;10.534;2023-08-12T14:20:26;4.15;;;2.30;;
21733;SDS011;11029;47.820;10.534;2023-08-12T14:22:53;5.10;;;2.80;;
21733;SDS011;11029;47.820;10.534;2023-08-12T14:25:20;4.80;;;2.67;;
21733;SDS011;11029;47.820;10.534;2023-08-12T14:27:47;6.35;;;2.90;;
21733;SDS011;11029;47.820;10.534;2023-08-12T14:30:17;4.10;;;2.70;;
21733;SDS011;11029;47.820;10.534;2023-08-12T14:32:45;3.15;;;2.70;;
21733;SDS011;11029;47.820;10.534;2023-08-12T14:35:14;5.40;;;2.90;;
21733;SDS011;11029;47.820;10.534;2023-08-12T14:37:41;4.07;;;3.10;;
21733;SDS011;11029;47.820;10.534;2023-08-12T14:40:08;4.53;;;3.05;;
21733;SDS011;11029;47.820;10.534;2023-08-12T14:42:35;3.88;;;2.90;;
21733;SDS011;11029;47.820;10.534;2023-08-12T14:45:03;7.70;;;3.00;;
21733;SDS011;11029;47.820;10.534;2023-08-12T14:47:30;5.15;;;3.13;;
21733;SDS011;11029;47.820;10.534;2023-08-12T14:49:57;4.00;;;2.93;;
21733;SDS011;11029;47.820;10.534;2023-08-12T14:52:24;5.35;;;3.25;;
21733;SDS011;11029;47.820;10.534;2023-08-12T14:54:51;5.70;;;3.25;;
21733;SDS011;11029;47.820;10.534;2023-08-12T14:57:18;4.38;;;3.00;;
21733;SDS011;11029;47.820;10.534;2023-08-12T14:59:44;5.57;;;2.67;;
21733;SDS011;11029;47.820;10.534;2023-08-12T15:02:16;4.32;;;2.65;;
21733;SDS011;11029;47.820;10.534;2023-08-12T15:04:45;3.30;;;2.40;;
21733;SDS011;11029;47.820;10.534;2023-08-12T15:07:13;3.50;;;2.30;;
21733;SDS011;11029;47.820;10.534;2023-08-12T15:09:40;3.40;;;2.22;;
21733;SDS011;11029;47.820;10.534;2023-08-12T15:12:07;4.63;;;2.20;;
21733;SDS011;11029;47.820;10.534;2023-08-12T15:14:34;2.53;;;2.22;;
21733;SDS011;11029;47.820;10.534;2023-08-12T15:17:01;3.13;;;2.10;;
21733;SDS011;11029;47.820;10.534;2023-08-12T15:19:28;3.88;;;2.33;;
21733;SDS011;11029;47.820;10.534;2023-08-12T15:21:55;3.38;;;2.20;;
21733;SDS011;11029;47.820;10.534;2023-08-12T15:24:21;3.15;;;2.00;;
21733;SDS011;11029;47.820;10.534;2023-08-12T15:26:48;3.55;;;2.10;;
21733;SDS011;11029;47.820;10.534;2023-08-12T15:29:15;3.70;;;2.00;;
21733;SDS011;11029;47.820;10.534;2023-08-12T15:31:41;3.58;;;2.08;;
21733;SDS011;11029;47.820;10.534;2023-08-12T15:34:08;3.60;;;2.20;;
21733;SDS011;11029;47.820;10.534;2023-08-12T15:36:35;4.68;;;2.20;;
21733;SDS011;11029;47.820;10.534;2023-08-12T15:39:02;3.40;;;1.92;;
21733;SDS011;11029;47.820;10.534;2023-08-12T15:41:29;4.53;;;2.10;;
21733;SDS011;11029;47.820;10.534;2023-08-12T15:43:56;2.53;;;1.98;;
21733;SDS011;11029;47.820;10.534;2023-08-12T15:46:23;2.75;;;2.20;;
21733;SDS011;11029;47.820;10.534;2023-08-12T15:48:49;3.60;;;2.03;;
21733;SDS011;11029;47.820;10.534;2023-08-12T15:51:16;2.95;;;2.20;;
21733;SDS011;11029;47.820;10.534;2023-08-12T15:53:43;4.18;;;2.30;;
21733;SDS011;11029;47.820;10.534;2023-08-12T15:56:10;4.45;;;2.28;;
21733;SDS011;11029;47.820;10.534;2023-08-12T15:58:37;3.17;;;2.20;;
21733;SDS011;11029;47.820;10.534;2023-08-12T16:20:41;3.00;;;2.70;;
21733;SDS011;11029;47.820;10.534;2023-08-12T16:23:08;4.95;;;2.35;;
21733;SDS011;11029;47.820;10.534;2023-08-12T16:25:34;2.63;;;2.10;;
21733;SDS011;11029;47.820;10.534;2023-08-12T16:28:01;4.47;;;2.63;;
21733;SDS011;11029;47.820;10.534;2023-08-12T17:09:39;5.55;;;2.50;;
21733;SDS011;11029;47.820;10.534;2023-08-12T17:12:06;2.75;;;2.55;;
21733;SDS011;11029;47.820;10.534;2023-08-12T17:14:33;4.78;;;2.05;;
21733;SDS011;11029;47.820;10.534;2023-08-12T17:17:00;5.35;;;2.33;;
21733;SDS011;11029;47.820;10.534;2023-08-12T17:19:28;3.33;;;2.72;;
21733;SDS011;11029;47.820;10.534;2023-08-12T17:21:55;4.03;;;2.35;;
21733;SDS011;11029;47.820;10.534;2023-08-12T17:24:21;5.88;;;2.42;;
21733;SDS011;11029;47.820;10.534;2023-08-12T17:26:48;3.97;;;2.42;;
21733;SDS011;11029;47.820;10.534;2023-08-12T17:29:15;5.57;;;3.03;;
21733;SDS011;11029;47.820;10.534;2023-08-12T17:31:42;5.28;;;2.65;;
21733;SDS011;11029;47.820;10.534;2023-08-12T17:34:08;3.70;;;2.80;;
21733;SDS011;11029;47.820;10.534;2023-08-12T17:36:35;5.63;;;2.63;;
